Glover, WI

11:24 PM CST on December 07, 2016 (GMT -0600)
WIDOT | | Change Station

Elev 895 ft 44.91 °N, 92.67 °W | Updated 42 days ago

Cloudy
Cloudy
19 °F
Feels Like 5 °F
N
17
Wind Variable Wind from West
Gusts 26 mph

Today
High -- | Low -- °F
--% Chance of Precip.
Yesterday
High -- | Low -- °F
Precip. -- in
Pressure 30.12 in
Visibility 7.0 miles
Clouds Scattered Clouds 2100 ft
Mostly Cloudy 9500 ft
Windchill 5 °F
Dew Point 13 °F
Humidity 77%
Rainfall in
Snow Depth Not available.
7:35 AM 4:29 PM
First Quarter, 59% visible
METAR K21D 080513Z AUTO 27012G19KT 7SM -SN SCT021 BKN095 M08/M11 A3012 RMK AO2
Pressure 30.12 in
Visibility 7.0 miles
Clouds Scattered Clouds 2100 ft
Mostly Cloudy 9500 ft
Windchill 5 °F
Dew Point 13 °F
Humidity 77%
Rainfall in
Snow Depth Not available.
7:35 AM 4:29 PM
First Quarter, 59% visible
METAR K21D 080513Z AUTO 27012G19KT 7SM -SN SCT021 BKN095 M08/M11 A3012 RMK AO2

10-Day Weather Forecast

Almanac

Astronomy

Dec. 07, 2016 Rise Set
Actual Time
Civil Twilight
Nautical Twilight
Astronomical Twilight
Moon
Length of Visible Light
Length of Day
Tomorrow will be .
, % of the Moon is Illuminated

Today's Extremes

State Highs State Lows

Community

WunderPhotos

Upload Photos

1,956,259 photos uploaded!

WunderBlog® & News

Nearby

Air Quality

  Air Quality AQ Index Pollutant
Not available.

Snow Depth

Station Depth Elevation

Earthquake Activity

City Distance Mag. Time & Date
Minimum magnitude displayed is 2.5.

Coastal Water Temperatures

Place Temperature

Stations

Nearby Weather Stations

Station Location Temp. Windchill Dew Point Humidity Wind Precip. Elev Updated Type
                   

Watches & Warnings

There are currently no watches in effect.